createdAt,value
2022-12-25T00:00:20.433Z,1012.41
2022-12-25T00:01:14.659Z,1012.41
2022-12-25T00:02:14.718Z,1012.42
2022-12-25T00:03:14.840Z,1012.40
2022-12-25T00:04:14.839Z,1012.41
2022-12-25T00:05:14.650Z,1012.41
2022-12-25T00:06:14.644Z,1012.43
2022-12-25T00:07:14.659Z,1012.40
2022-12-25T00:08:14.637Z,1012.40
2022-12-25T00:09:14.650Z,1012.37
2022-12-25T00:10:14.644Z,1012.35
2022-12-25T00:11:14.651Z,1012.34
2022-12-25T00:12:14.627Z,1012.35
2022-12-25T00:13:14.640Z,1012.29
2022-12-25T00:14:14.624Z,1012.33
2022-12-25T00:15:14.636Z,1012.34
2022-12-25T00:16:14.706Z,1012.33
2022-12-25T00:17:14.616Z,1012.36
2022-12-25T00:18:14.610Z,1012.38
2022-12-25T00:19:14.631Z,1012.37
2022-12-25T00:20:14.603Z,1012.39
2022-12-25T00:21:14.604Z,1012.36
2022-12-25T00:22:14.598Z,1012.37
2022-12-25T00:23:14.600Z,1012.42
2022-12-25T00:24:14.592Z,1012.39
2022-12-25T00:25:14.595Z,1012.38
2022-12-25T00:26:14.588Z,1012.42
2022-12-25T00:27:14.587Z,1012.36
2022-12-25T00:28:14.580Z,1012.43
2022-12-25T00:29:14.584Z,1012.38
2022-12-25T00:30:14.582Z,1012.41
2022-12-25T00:31:14.755Z,1012.43
2022-12-25T00:32:14.573Z,1012.43
2022-12-25T00:33:14.571Z,1012.44
2022-12-25T00:34:14.569Z,1012.46
2022-12-25T00:35:14.605Z,1012.51
2022-12-25T00:36:14.563Z,1012.57
2022-12-25T00:37:14.560Z,1012.57
2022-12-25T00:38:14.552Z,1012.60
2022-12-25T00:39:14.560Z,1012.64
2022-12-25T00:40:14.548Z,1012.62
2022-12-25T00:41:14.553Z,1012.66
2022-12-25T00:42:14.538Z,1012.67
2022-12-25T00:43:14.545Z,1012.68
2022-12-25T00:44:14.539Z,1012.66
2022-12-25T00:45:15.985Z,1012.67
2022-12-25T00:46:14.695Z,1012.61
2022-12-25T00:47:14.645Z,1012.63
2022-12-25T00:48:14.524Z,1012.63
2022-12-25T00:49:14.531Z,1012.64
2022-12-25T00:50:14.519Z,1012.70
2022-12-25T00:51:14.547Z,1012.67
2022-12-25T00:52:14.529Z,1012.61
2022-12-25T00:53:14.512Z,1012.64
2022-12-25T00:54:14.507Z,1012.65
2022-12-25T00:55:14.504Z,1012.65
2022-12-25T00:56:14.506Z,1012.67
2022-12-25T00:57:14.507Z,1012.68
2022-12-25T00:58:14.494Z,1012.65
2022-12-25T00:59:14.490Z,1012.67
2022-12-25T01:00:14.493Z,1012.69
2022-12-25T01:01:14.708Z,1012.70
2022-12-25T01:02:14.639Z,1012.73
2022-12-25T01:03:14.626Z,1012.78
2022-12-25T01:04:14.483Z,1012.83
2022-12-25T01:05:14.479Z,1012.90
2022-12-25T01:06:14.486Z,1012.88
2022-12-25T01:07:14.494Z,1012.89
2022-12-25T01:08:14.461Z,1012.88
2022-12-25T01:09:14.470Z,1012.93
2022-12-25T01:10:14.465Z,1012.94
2022-12-25T01:11:14.454Z,1012.95
2022-12-25T01:12:14.448Z,1012.94
2022-12-25T01:13:14.452Z,1012.97
2022-12-25T01:15:14.451Z,1013.01
2022-12-25T01:16:14.487Z,1013.00
2022-12-25T01:17:14.440Z,1013.00
2022-12-25T01:18:14.436Z,1013.02
2022-12-25T01:19:14.444Z,1013.00
2022-12-25T01:20:14.431Z,1013.02
2022-12-25T01:21:14.425Z,1013.00
2022-12-25T01:22:14.420Z,1012.96
2022-12-25T01:23:14.439Z,1013.00
2022-12-25T01:24:14.408Z,1013.01
2022-12-25T01:25:14.428Z,1013.05
2022-12-25T01:26:14.408Z,1013.04
2022-12-25T01:27:14.405Z,1013.10
2022-12-25T01:28:14.395Z,1013.08
2022-12-25T01:29:14.416Z,1013.10
2022-12-25T01:30:14.392Z,1013.12
2022-12-25T01:31:14.445Z,1013.16
2022-12-25T01:32:14.466Z,1013.14
2022-12-25T01:33:14.400Z,1013.16
2022-12-25T01:34:14.376Z,1013.13
2022-12-25T01:35:14.381Z,1013.20
2022-12-25T01:36:14.374Z,1013.23
2022-12-25T01:37:14.376Z,1013.20
2022-12-25T01:38:14.361Z,1013.18
2022-12-25T01:39:14.388Z,1013.24
2022-12-25T01:40:14.363Z,1013.25
2022-12-25T01:41:14.359Z,1013.27
2022-12-25T01:42:14.350Z,1013.25
2022-12-25T01:43:18.643Z,1013.25
2022-12-25T01:44:14.355Z,1013.25
2022-12-25T01:45:14.344Z,1013.27
2022-12-25T01:46:14.444Z,1013.29
2022-12-25T01:47:14.341Z,1013.31
2022-12-25T01:48:14.327Z,1013.28
2022-12-25T01:49:14.337Z,1013.32
2022-12-25T01:50:14.321Z,1013.35
2022-12-25T01:51:14.322Z,1013.37
2022-12-25T01:52:16.512Z,1013.37
2022-12-25T01:53:14.329Z,1013.39
2022-12-25T01:54:14.308Z,1013.37
2022-12-25T01:55:14.335Z,1013.40
2022-12-25T01:56:14.323Z,1013.35
2022-12-25T01:57:14.302Z,1013.34
2022-12-25T01:58:14.299Z,1013.32
2022-12-25T01:59:14.311Z,1013.36
2022-12-25T02:00:14.316Z,1013.35
2022-12-25T02:01:14.497Z,1013.34
2022-12-25T02:02:14.447Z,1013.35
2022-12-25T02:03:14.402Z,1013.32
2022-12-25T02:04:14.284Z,1013.30
2022-12-25T02:05:14.279Z,1013.33
2022-12-25T02:06:14.274Z,1013.33
2022-12-25T02:07:14.277Z,1013.38
2022-12-25T02:08:14.271Z,1013.40
2022-12-25T02:09:14.263Z,1013.43
2022-12-25T02:10:14.261Z,1013.46
2022-12-25T02:11:14.277Z,1013.45
2022-12-25T02:12:14.252Z,1013.46
2022-12-25T02:13:14.248Z,1013.48
2022-12-25T02:14:14.236Z,1013.51
2022-12-25T02:15:14.243Z,1013.53
2022-12-25T02:16:14.302Z,1013.55
2022-12-25T02:17:14.326Z,1013.53
2022-12-25T02:18:14.234Z,1013.52
2022-12-25T02:19:14.227Z,1013.52
2022-12-25T02:20:14.217Z,1013.51
2022-12-25T02:21:14.216Z,1013.51
2022-12-25T02:22:14.214Z,1013.51
2022-12-25T02:23:14.213Z,1013.47
2022-12-25T02:24:14.213Z,1013.47
2022-12-25T02:25:14.202Z,1013.45
2022-12-25T02:26:14.199Z,1013.48
2022-12-25T02:27:14.220Z,1013.48
2022-12-25T02:28:14.188Z,1013.48
2022-12-25T02:29:14.188Z,1013.46
2022-12-25T02:30:14.186Z,1013.44
2022-12-25T02:31:14.182Z,1013.50
2022-12-25T02:32:14.242Z,1013.49
2022-12-25T02:33:14.178Z,1013.54
2022-12-25T02:34:14.218Z,1013.55
2022-12-25T02:35:14.180Z,1013.57
2022-12-25T02:36:14.161Z,1013.58
2022-12-25T02:37:14.167Z,1013.57
2022-12-25T02:38:14.154Z,1013.59
2022-12-25T02:39:14.151Z,1013.60
2022-12-25T02:40:14.144Z,1013.62
2022-12-25T02:41:14.147Z,1013.62
2022-12-25T02:42:14.145Z,1013.64
2022-12-25T02:43:14.175Z,1013.61
2022-12-25T02:44:14.162Z,1013.68
2022-12-25T02:45:14.145Z,1013.66
2022-12-25T02:46:14.230Z,1013.65
2022-12-25T02:47:14.131Z,1013.68
2022-12-25T02:48:14.119Z,1013.67
2022-12-25T02:49:14.133Z,1013.68
2022-12-25T02:50:14.111Z,1013.59
2022-12-25T02:51:14.112Z,1013.64
2022-12-25T02:52:14.106Z,1013.63
2022-12-25T02:53:14.101Z,1013.60
2022-12-25T02:54:14.105Z,1013.65
2022-12-25T02:55:14.094Z,1013.70
2022-12-25T02:56:14.084Z,1013.67
2022-12-25T02:57:14.111Z,1013.68
2022-12-25T02:58:14.075Z,1013.69
2022-12-25T02:59:14.112Z,1013.69
2022-12-25T03:00:14.072Z,1013.72
2022-12-25T03:01:14.168Z,1013.68
2022-12-25T03:02:14.282Z,1013.75
2022-12-25T03:03:14.150Z,1013.69
2022-12-25T03:04:14.050Z,1013.69
2022-12-25T03:05:14.052Z,1013.70
2022-12-25T03:06:14.047Z,1013.73
2022-12-25T03:07:14.166Z,1013.68
2022-12-25T03:08:14.034Z,1013.70
2022-12-25T03:09:14.040Z,1013.71
2022-12-25T03:10:14.033Z,1013.72
2022-12-25T03:11:14.035Z,1013.70
2022-12-25T03:12:14.019Z,1013.71
2022-12-25T03:13:14.024Z,1013.73
2022-12-25T03:14:14.015Z,1013.74
2022-12-25T03:15:14.085Z,1013.73
2022-12-25T03:16:14.022Z,1013.70
2022-12-25T03:17:14.044Z,1013.67
2022-12-25T03:18:13.995Z,1013.67
2022-12-25T03:19:13.998Z,1013.67
2022-12-25T03:20:14.011Z,1013.68
2022-12-25T03:21:13.989Z,1013.70
2022-12-25T03:22:13.980Z,1013.72
2022-12-25T03:23:13.980Z,1013.67
2022-12-25T03:24:13.974Z,1013.65
2022-12-25T03:25:13.970Z,1013.63
2022-12-25T03:26:13.972Z,1013.62
2022-12-25T03:27:13.984Z,1013.59
2022-12-25T03:28:13.979Z,1013.59
2022-12-25T03:29:13.953Z,1013.62
2022-12-25T03:30:13.957Z,1013.62
2022-12-25T03:31:14.180Z,1013.67
2022-12-25T03:32:13.940Z,1013.71
2022-12-25T03:33:43.420Z,1013.71
2022-12-25T03:34:13.932Z,1013.67
2022-12-25T03:35:13.944Z,1013.72
2022-12-25T03:36:13.931Z,1013.73
2022-12-25T03:37:13.925Z,1013.76
2022-12-25T03:38:13.916Z,1013.74
2022-12-25T03:39:13.921Z,1013.77
2022-12-25T03:40:13.911Z,1013.73
2022-12-25T03:41:13.911Z,1013.77
2022-12-25T03:42:13.903Z,1013.77
2022-12-25T03:43:13.907Z,1013.81
2022-12-25T03:44:13.897Z,1013.80
2022-12-25T03:45:13.902Z,1013.83
2022-12-25T03:46:13.929Z,1013.88
2022-12-25T03:47:13.906Z,1013.92
2022-12-25T03:48:13.875Z,1013.87
2022-12-25T03:49:13.878Z,1013.94
2022-12-25T03:50:13.872Z,1013.93
2022-12-25T03:51:13.875Z,1013.92
2022-12-25T03:52:13.860Z,1013.91
2022-12-25T03:53:13.861Z,1013.94
2022-12-25T03:54:13.852Z,1013.88
2022-12-25T03:55:13.851Z,1013.89
2022-12-25T03:56:13.849Z,1013.92
2022-12-25T03:57:13.844Z,1013.93
2022-12-25T03:58:13.839Z,1013.96
2022-12-25T03:59:19.369Z,1013.95
2022-12-25T04:00:13.836Z,1014.01
2022-12-25T04:01:13.871Z,1013.99
2022-12-25T04:02:14.002Z,1013.99
2022-12-25T04:03:13.901Z,1014.00
2022-12-25T04:04:13.850Z,1014.01
2022-12-25T04:05:13.814Z,1014.04
2022-12-25T04:06:13.809Z,1014.02
2022-12-25T04:07:13.807Z,1014.04
2022-12-25T04:08:13.801Z,1014.02
2022-12-25T04:09:13.796Z,1014.01
2022-12-25T04:10:13.799Z,1014.04
2022-12-25T04:11:13.784Z,1014.07
2022-12-25T04:12:13.787Z,1014.09
2022-12-25T04:13:13.788Z,1014.15
2022-12-25T04:14:13.776Z,1014.14
2022-12-25T04:15:13.800Z,1014.15
2022-12-25T04:16:13.879Z,1014.17
2022-12-25T04:17:13.778Z,1014.16
2022-12-25T04:18:13.760Z,1014.18
2022-12-25T04:19:13.772Z,1014.18
2022-12-25T04:20:13.753Z,1014.22
2022-12-25T04:21:13.748Z,1014.23
2022-12-25T04:22:13.751Z,1014.21
2022-12-25T04:23:13.737Z,1014.22
2022-12-25T04:24:13.757Z,1014.20
2022-12-25T04:25:13.736Z,1014.21
2022-12-25T04:26:13.728Z,1014.18
2022-12-25T04:27:13.729Z,1014.21
2022-12-25T04:28:13.715Z,1014.23
2022-12-25T04:29:13.713Z,1014.23
2022-12-25T04:30:13.711Z,1014.20
2022-12-25T04:31:13.779Z,1014.21
2022-12-25T04:32:13.706Z,1014.20
2022-12-25T04:33:13.703Z,1014.21
2022-12-25T04:34:13.693Z,1014.18
2022-12-25T04:35:13.706Z,1014.21
2022-12-25T04:36:13.688Z,1014.20
2022-12-25T04:37:13.678Z,1014.21
2022-12-25T04:38:13.681Z,1014.19
2022-12-25T04:39:13.671Z,1014.16
2022-12-25T04:40:13.671Z,1014.18
2022-12-25T04:41:13.658Z,1014.22
2022-12-25T04:42:13.659Z,1014.19
2022-12-25T04:43:13.651Z,1014.21
2022-12-25T04:44:13.660Z,1014.23
2022-12-25T04:45:13.647Z,1014.22
2022-12-25T04:46:13.788Z,1014.19
2022-12-25T04:47:13.647Z,1014.28
2022-12-25T04:48:13.637Z,1014.27
2022-12-25T04:49:13.629Z,1014.29
2022-12-25T04:50:13.647Z,1014.26
2022-12-25T04:51:13.639Z,1014.31
2022-12-25T04:52:13.611Z,1014.28
2022-12-25T04:53:13.605Z,1014.33
2022-12-25T04:54:13.619Z,1014.29
2022-12-25T04:55:13.605Z,1014.35
2022-12-25T04:56:13.605Z,1014.38
2022-12-25T04:57:13.591Z,1014.43
2022-12-25T04:58:13.600Z,1014.40
2022-12-25T04:59:13.583Z,1014.47
2022-12-25T05:00:13.584Z,1014.48
2022-12-25T05:01:13.688Z,1014.49
2022-12-25T05:02:13.708Z,1014.45
2022-12-25T05:03:13.726Z,1014.45
2022-12-25T05:04:13.560Z,1014.42
2022-12-25T05:05:13.559Z,1014.39
2022-12-25T05:06:13.554Z,1014.36
2022-12-25T05:07:13.572Z,1014.38
2022-12-25T05:08:13.553Z,1014.39
2022-12-25T05:09:13.551Z,1014.37
2022-12-25T05:10:13.545Z,1014.37
2022-12-25T05:11:13.535Z,1014.38
2022-12-25T05:12:13.535Z,1014.37
2022-12-25T05:13:13.528Z,1014.32
2022-12-25T05:14:13.523Z,1014.31
2022-12-25T05:15:13.517Z,1014.32
2022-12-25T05:16:13.570Z,1014.28
2022-12-25T05:17:13.512Z,1014.27
2022-12-25T05:18:13.504Z,1014.25
2022-12-25T05:19:13.507Z,1014.19
2022-12-25T05:20:13.499Z,1014.16
2022-12-25T05:21:13.509Z,1014.18
2022-12-25T05:22:13.485Z,1014.17
2022-12-25T05:23:13.508Z,1014.18
2022-12-25T05:24:13.475Z,1014.20
2022-12-25T05:25:13.468Z,1014.20
2022-12-25T05:26:13.468Z,1014.20
2022-12-25T05:27:13.457Z,1014.25
2022-12-25T05:28:13.458Z,1014.20
2022-12-25T05:29:13.455Z,1014.18
2022-12-25T05:30:13.450Z,1014.17
2022-12-25T05:31:13.456Z,1014.14
2022-12-25T05:32:13.448Z,1014.17
2022-12-25T05:33:13.433Z,1014.16
2022-12-25T05:34:13.431Z,1014.13
2022-12-25T05:35:13.427Z,1014.17
2022-12-25T05:36:13.437Z,1014.18
2022-12-25T05:37:13.421Z,1014.19
2022-12-25T05:38:13.433Z,1014.23
2022-12-25T05:39:13.433Z,1014.26
2022-12-25T05:40:13.417Z,1014.26
2022-12-25T05:41:13.401Z,1014.25
2022-12-25T05:42:13.395Z,1014.26
2022-12-25T05:43:13.389Z,1014.26
2022-12-25T05:44:13.393Z,1014.24
2022-12-25T05:45:13.389Z,1014.23
2022-12-25T05:46:13.492Z,1014.23
2022-12-25T05:47:13.369Z,1014.20
2022-12-25T05:48:13.368Z,1014.25
2022-12-25T05:49:13.359Z,1014.26
2022-12-25T05:50:13.367Z,1014.30
2022-12-25T05:51:13.352Z,1014.31
2022-12-25T05:52:13.358Z,1014.36
2022-12-25T05:53:13.346Z,1014.32
2022-12-25T05:54:13.345Z,1014.35
2022-12-25T05:55:13.364Z,1014.35
2022-12-25T05:56:13.341Z,1014.37
2022-12-25T05:57:13.327Z,1014.36
2022-12-25T05:58:13.328Z,1014.31
2022-12-25T05:59:13.320Z,1014.33
2022-12-25T06:00:13.327Z,1014.32
2022-12-25T06:01:13.304Z,1014.25
2022-12-25T06:02:13.442Z,1014.20
2022-12-25T06:03:13.474Z,1014.19
2022-12-25T06:04:13.442Z,1014.23
2022-12-25T06:05:13.283Z,1014.19
2022-12-25T06:06:13.298Z,1014.18
2022-12-25T06:07:13.276Z,1014.18
2022-12-25T06:08:13.275Z,1014.14
2022-12-25T06:09:13.284Z,1014.10
2022-12-25T06:10:13.277Z,1014.12
2022-12-25T06:11:13.288Z,1014.13
2022-12-25T06:12:13.262Z,1014.13
2022-12-25T06:13:13.249Z,1014.10
2022-12-25T06:14:13.260Z,1014.14
2022-12-25T06:15:13.243Z,1014.11
2022-12-25T06:16:13.375Z,1014.14
2022-12-25T06:17:13.232Z,1014.08
2022-12-25T06:18:13.229Z,1014.09
2022-12-25T06:19:13.251Z,1014.03
2022-12-25T06:20:13.227Z,1014.06
2022-12-25T06:21:13.219Z,1013.99
2022-12-25T06:22:13.210Z,1013.96
2022-12-25T06:23:13.309Z,1013.94
2022-12-25T06:24:19.177Z,1013.94
2022-12-25T06:25:13.201Z,1013.93
2022-12-25T06:26:13.194Z,1013.93
2022-12-25T06:27:13.208Z,1013.91
2022-12-25T06:28:13.186Z,1013.93
2022-12-25T06:29:13.174Z,1013.91
2022-12-25T06:30:13.178Z,1013.89
2022-12-25T06:31:13.256Z,1013.97
2022-12-25T06:32:13.165Z,1014.00
2022-12-25T06:33:13.159Z,1014.05
2022-12-25T06:34:13.155Z,1014.06
2022-12-25T06:35:13.164Z,1014.08
2022-12-25T06:36:13.149Z,1014.09
2022-12-25T06:37:13.137Z,1014.10
2022-12-25T06:38:13.139Z,1014.11
2022-12-25T06:39:13.136Z,1014.15
2022-12-25T06:40:13.151Z,1014.20
2022-12-25T06:41:13.118Z,1014.19
2022-12-25T06:42:13.115Z,1014.18
2022-12-25T06:43:13.131Z,1014.20
2022-12-25T06:44:13.107Z,1014.17
2022-12-25T06:45:13.105Z,1014.15
2022-12-25T06:46:13.169Z,1014.16
2022-12-25T06:47:13.090Z,1014.15
2022-12-25T06:48:13.099Z,1014.14
2022-12-25T06:49:13.078Z,1014.13
2022-12-25T06:50:13.085Z,1014.13
2022-12-25T06:51:13.078Z,1014.10
2022-12-25T06:52:13.089Z,1014.11
2022-12-25T06:53:13.066Z,1014.10
2022-12-25T06:54:13.099Z,1014.10
2022-12-25T06:55:13.052Z,1014.09
2022-12-25T06:56:13.052Z,1014.12
2022-12-25T06:57:13.044Z,1014.10
2022-12-25T06:58:13.042Z,1014.13
2022-12-25T06:59:13.064Z,1014.21
2022-12-25T07:00:13.035Z,1014.23
2022-12-25T07:01:13.104Z,1014.21
2022-12-25T07:02:13.145Z,1014.25
2022-12-25T07:03:13.140Z,1014.27
2022-12-25T07:04:13.020Z,1014.26
2022-12-25T07:05:13.005Z,1014.26
2022-12-25T07:06:13.007Z,1014.28
2022-12-25T07:07:13.000Z,1014.28
2022-12-25T07:08:12.999Z,1014.35
2022-12-25T07:09:12.988Z,1014.31
2022-12-25T07:10:12.987Z,1014.38
2022-12-25T07:11:12.974Z,1014.39
2022-12-25T07:12:12.977Z,1014.38
2022-12-25T07:13:12.970Z,1014.38
2022-12-25T07:14:12.964Z,1014.44
2022-12-25T07:15:12.986Z,1014.46
2022-12-25T07:16:13.001Z,1014.47
2022-12-25T07:17:12.952Z,1014.49
2022-12-25T07:18:12.965Z,1014.43
2022-12-25T07:19:12.937Z,1014.48
2022-12-25T07:20:12.936Z,1014.54
2022-12-25T07:21:12.931Z,1014.56
2022-12-25T07:22:12.938Z,1014.60
2022-12-25T07:23:12.918Z,1014.63
2022-12-25T07:24:12.916Z,1014.62
2022-12-25T07:25:13.912Z,1014.65
2022-12-25T07:26:12.921Z,1014.67
2022-12-25T07:27:12.908Z,1014.72
2022-12-25T07:28:12.899Z,1014.73
2022-12-25T07:29:12.898Z,1014.73
2022-12-25T07:30:12.887Z,1014.72
2022-12-25T07:31:13.023Z,1014.69
2022-12-25T07:32:12.944Z,1014.72
2022-12-25T07:33:12.873Z,1014.71
2022-12-25T07:34:12.873Z,1014.76
2022-12-25T07:35:12.861Z,1014.80
2022-12-25T07:36:13.406Z,1014.80
2022-12-25T07:37:12.849Z,1014.80
2022-12-25T07:38:12.849Z,1014.82
2022-12-25T07:39:12.848Z,1014.81
2022-12-25T07:40:12.843Z,1014.85
2022-12-25T07:41:13.066Z,1014.88
2022-12-25T07:42:12.828Z,1014.86
2022-12-25T07:43:12.831Z,1014.87
2022-12-25T07:44:12.824Z,1014.84
2022-12-25T07:45:12.815Z,1014.84
2022-12-25T07:46:12.859Z,1014.88
2022-12-25T07:47:12.828Z,1014.83
2022-12-25T07:48:16.682Z,1014.85
2022-12-25T07:49:12.802Z,1014.81
2022-12-25T07:50:12.826Z,1014.80
2022-12-25T07:51:12.785Z,1014.79
2022-12-25T07:52:12.779Z,1014.80
2022-12-25T07:53:12.780Z,1014.84
2022-12-25T07:54:12.774Z,1014.79
2022-12-25T07:55:12.758Z,1014.73
2022-12-25T07:56:12.766Z,1014.73
2022-12-25T07:57:12.763Z,1014.69
2022-12-25T07:58:13.749Z,1014.67
2022-12-25T07:59:12.750Z,1014.69
2022-12-25T08:00:12.742Z,1014.67
2022-12-25T08:01:12.885Z,1014.69
2022-12-25T08:02:12.935Z,1014.68
2022-12-25T08:03:12.964Z,1014.69
2022-12-25T08:04:12.835Z,1014.70
2022-12-25T08:05:12.716Z,1014.68
2022-12-25T08:06:12.751Z,1014.70
2022-12-25T08:07:12.707Z,1014.69
2022-12-25T08:08:12.706Z,1014.77
2022-12-25T08:09:12.721Z,1014.78
2022-12-25T08:10:12.695Z,1014.80
2022-12-25T08:11:12.691Z,1014.84
2022-12-25T08:12:12.699Z,1014.84
2022-12-25T08:13:14.753Z,1014.86
2022-12-25T08:14:12.694Z,1014.82
2022-12-25T08:15:12.680Z,1014.81
2022-12-25T08:16:12.693Z,1014.84
2022-12-25T08:17:12.714Z,1014.87
2022-12-25T08:18:12.657Z,1014.85
2022-12-25T08:19:12.681Z,1014.82
2022-12-25T08:20:12.655Z,1014.85
2022-12-25T08:21:12.651Z,1014.83
2022-12-25T08:22:12.640Z,1014.81
2022-12-25T08:23:12.636Z,1014.81
2022-12-25T08:24:12.648Z,1014.74
2022-12-25T08:25:12.631Z,1014.77
2022-12-25T08:26:12.615Z,1014.81
2022-12-25T08:27:12.622Z,1014.85
2022-12-25T08:28:12.613Z,1014.90
2022-12-25T08:29:12.613Z,1014.91
2022-12-25T08:30:12.604Z,1014.96
2022-12-25T08:31:12.664Z,1014.92
2022-12-25T08:32:12.590Z,1014.90
2022-12-25T08:33:12.592Z,1014.90
2022-12-25T08:34:12.608Z,1014.87
2022-12-25T08:35:12.605Z,1014.83
2022-12-25T08:36:12.582Z,1014.81
2022-12-25T08:37:12.578Z,1014.76
2022-12-25T08:38:12.567Z,1014.74
2022-12-25T08:39:12.568Z,1014.77
2022-12-25T08:40:12.554Z,1014.74
2022-12-25T08:41:12.554Z,1014.76
2022-12-25T08:42:12.549Z,1014.74
2022-12-25T08:43:12.557Z,1014.78
2022-12-25T08:44:12.539Z,1014.82
2022-12-25T08:45:12.573Z,1014.83
2022-12-25T08:46:12.626Z,1014.87
2022-12-25T08:47:12.527Z,1014.78
2022-12-25T08:48:12.539Z,1014.82
2022-12-25T08:49:12.532Z,1014.83
2022-12-25T08:50:12.518Z,1014.77
2022-12-25T08:51:12.533Z,1014.78
2022-12-25T08:52:12.507Z,1014.79
2022-12-25T08:53:12.506Z,1014.83
2022-12-25T08:54:12.498Z,1014.75
2022-12-25T08:55:12.510Z,1014.78
2022-12-25T08:56:12.493Z,1014.76
2022-12-25T08:57:12.489Z,1014.74
2022-12-25T08:58:12.484Z,1014.75
2022-12-25T08:59:12.478Z,1014.68
2022-12-25T09:00:12.493Z,1014.65
2022-12-25T09:01:12.556Z,1014.61
2022-12-25T09:02:12.763Z,1014.62
2022-12-25T09:03:12.602Z,1014.62
2022-12-25T09:04:12.455Z,1014.56
2022-12-25T09:05:12.460Z,1014.59
2022-12-25T09:06:12.449Z,1014.53
2022-12-25T09:07:12.468Z,1014.49
2022-12-25T09:08:12.437Z,1014.52
2022-12-25T09:09:12.446Z,1014.48
2022-12-25T09:10:12.439Z,1014.52
2022-12-25T09:11:12.430Z,1014.44
2022-12-25T09:12:12.426Z,1014.42
2022-12-25T09:13:12.420Z,1014.40
2022-12-25T09:14:12.410Z,1014.36
2022-12-25T09:15:12.415Z,1014.40
2022-12-25T09:16:12.524Z,1014.36
2022-12-25T09:17:12.400Z,1014.28
2022-12-25T09:18:12.406Z,1014.28
2022-12-25T09:19:12.402Z,1014.28
2022-12-25T09:20:12.391Z,1014.24
2022-12-25T09:21:12.386Z,1014.25
2022-12-25T09:22:12.383Z,1014.26
2022-12-25T09:23:14.319Z,1014.25
2022-12-25T09:24:12.375Z,1014.24
2022-12-25T09:25:12.368Z,1014.24
2022-12-25T09:26:12.366Z,1014.25
2022-12-25T09:27:12.367Z,1014.23
2022-12-25T09:28:12.356Z,1014.20
2022-12-25T09:29:12.359Z,1014.29
2022-12-25T09:30:12.353Z,1014.27
2022-12-25T09:31:12.577Z,1014.26
2022-12-25T09:32:12.336Z,1014.27
2022-12-25T09:33:12.372Z,1014.26
2022-12-25T09:34:17.054Z,1014.28
2022-12-25T09:35:12.331Z,1014.26
2022-12-25T09:36:12.335Z,1014.25
2022-12-25T09:37:12.323Z,1014.20
2022-12-25T09:38:12.330Z,1014.19
2022-12-25T09:39:12.339Z,1014.25
2022-12-25T09:40:12.307Z,1014.20
2022-12-25T09:41:12.307Z,1014.19
2022-12-25T09:42:12.307Z,1014.18
2022-12-25T09:43:12.295Z,1014.19
2022-12-25T09:44:12.317Z,1014.19
2022-12-25T09:45:12.296Z,1014.20
2022-12-25T09:46:12.381Z,1014.23
2022-12-25T09:47:12.296Z,1014.17
2022-12-25T09:48:12.277Z,1014.16
2022-12-25T09:49:12.286Z,1014.18
2022-12-25T09:50:12.270Z,1014.19
2022-12-25T09:51:12.266Z,1014.20
2022-12-25T09:52:12.262Z,1014.21
2022-12-25T09:53:12.259Z,1014.21
2022-12-25T09:54:12.253Z,1014.23
2022-12-25T09:55:17.869Z,1014.25
2022-12-25T09:56:12.258Z,1014.29
2022-12-25T09:57:12.241Z,1014.29
2022-12-25T09:58:12.249Z,1014.27
2022-12-25T09:59:12.236Z,1014.27
2022-12-25T10:00:12.222Z,1014.27
2022-12-25T10:01:12.278Z,1014.24
2022-12-25T10:02:12.467Z,1014.25
2022-12-25T10:03:12.337Z,1014.25
2022-12-25T10:04:12.214Z,1014.28
2022-12-25T10:05:12.223Z,1014.32
2022-12-25T10:06:12.201Z,1014.28
2022-12-25T10:07:12.206Z,1014.28
2022-12-25T10:08:12.192Z,1014.34
2022-12-25T10:09:12.196Z,1014.42
2022-12-25T10:10:12.208Z,1014.44
2022-12-25T10:11:12.211Z,1014.42
2022-12-25T10:12:12.173Z,1014.42
2022-12-25T10:13:12.176Z,1014.41
2022-12-25T10:14:12.174Z,1014.44
2022-12-25T10:15:12.176Z,1014.40
2022-12-25T10:16:12.221Z,1014.48
2022-12-25T10:17:12.163Z,1014.48
2022-12-25T10:18:12.156Z,1014.46
2022-12-25T10:19:12.153Z,1014.41
2022-12-25T10:20:12.155Z,1014.43
2022-12-25T10:21:13.411Z,1014.40
2022-12-25T10:22:12.137Z,1014.42
2022-12-25T10:23:12.138Z,1014.41
2022-12-25T10:24:12.135Z,1014.43
2022-12-25T10:25:12.130Z,1014.42
2022-12-25T10:26:12.129Z,1014.36
2022-12-25T10:27:12.146Z,1014.38
2022-12-25T10:28:12.118Z,1014.38
2022-12-25T10:29:12.119Z,1014.35
2022-12-25T10:30:12.112Z,1014.41
2022-12-25T10:31:12.201Z,1014.32
2022-12-25T10:32:12.101Z,1014.34
2022-12-25T10:33:16.814Z,1014.28
2022-12-25T10:34:12.098Z,1014.21
2022-12-25T10:35:12.100Z,1014.13
2022-12-25T10:36:12.090Z,1014.11
2022-12-25T10:37:12.092Z,1014.07
2022-12-25T10:38:12.089Z,1014.04
2022-12-25T10:39:12.084Z,1013.98
2022-12-25T10:40:12.072Z,1014.01
2022-12-25T10:41:12.069Z,1013.97
2022-12-25T10:42:12.065Z,1013.94
2022-12-25T10:43:12.099Z,1013.98
2022-12-25T10:44:12.055Z,1013.95
2022-12-25T10:45:12.060Z,1013.93
2022-12-25T10:46:12.130Z,1013.91
2022-12-25T10:47:12.059Z,1013.87
2022-12-25T10:48:12.051Z,1013.89
2022-12-25T10:49:12.048Z,1013.84
2022-12-25T10:50:12.068Z,1013.86
2022-12-25T10:51:12.029Z,1013.82
2022-12-25T10:52:12.030Z,1013.83
2022-12-25T10:53:12.028Z,1013.87
2022-12-25T10:54:12.026Z,1013.92
2022-12-25T10:55:12.033Z,1013.92
2022-12-25T10:56:12.017Z,1013.96
2022-12-25T10:57:12.014Z,1013.91
2022-12-25T10:58:12.009Z,1013.91
2022-12-25T10:59:12.039Z,1013.88
2022-12-25T11:00:12.000Z,1013.87
2022-12-25T11:01:12.125Z,1013.86
2022-12-25T11:02:12.134Z,1013.88
2022-12-25T11:03:12.264Z,1013.87
2022-12-25T11:04:12.031Z,1013.92
2022-12-25T11:05:11.997Z,1013.90
2022-12-25T11:06:11.984Z,1013.96
2022-12-25T11:07:11.980Z,1013.91
2022-12-25T11:08:11.975Z,1013.86
2022-12-25T11:09:11.977Z,1013.80
2022-12-25T11:10:11.971Z,1013.77
2022-12-25T11:11:11.970Z,1013.76
2022-12-25T11:12:11.968Z,1013.93
2022-12-25T11:13:11.976Z,1013.98
2022-12-25T11:14:11.957Z,1014.00
2022-12-25T11:15:11.980Z,1013.98
2022-12-25T11:16:12.018Z,1013.98
2022-12-25T11:17:11.952Z,1013.92
2022-12-25T11:18:11.939Z,1013.93
2022-12-25T11:19:11.946Z,1013.95
2022-12-25T11:20:11.934Z,1013.92
2022-12-25T11:21:11.933Z,1013.97
2022-12-25T11:22:11.936Z,1013.92
2022-12-25T11:23:11.940Z,1013.96
2022-12-25T11:24:11.922Z,1013.95
2022-12-25T11:25:11.921Z,1013.90
2022-12-25T11:26:11.925Z,1013.93
2022-12-25T11:27:11.911Z,1013.95
2022-12-25T11:28:11.919Z,1013.91
2022-12-25T11:29:11.908Z,1013.88
2022-12-25T11:30:15.987Z,1013.89
2022-12-25T11:31:12.004Z,1013.92
2022-12-25T11:32:11.895Z,1013.97
2022-12-25T11:33:11.900Z,1013.86
2022-12-25T11:34:11.895Z,1013.82
2022-12-25T11:35:11.892Z,1013.80
2022-12-25T11:36:11.884Z,1013.75
2022-12-25T11:37:11.892Z,1013.74
2022-12-25T11:38:11.877Z,1013.76
2022-12-25T11:39:11.874Z,1013.76
2022-12-25T11:40:11.867Z,1013.83
2022-12-25T11:41:11.882Z,1013.89
2022-12-25T11:42:11.878Z,1013.90
2022-12-25T11:43:11.871Z,1013.99
2022-12-25T11:44:11.852Z,1013.93
2022-12-25T11:45:11.859Z,1013.96
2022-12-25T11:46:11.907Z,1013.97
2022-12-25T11:47:11.869Z,1013.83
2022-12-25T11:48:11.848Z,1013.72
2022-12-25T11:49:11.846Z,1013.56
2022-12-25T11:50:11.843Z,1013.45
2022-12-25T11:51:11.842Z,1013.41
2022-12-25T11:52:11.831Z,1013.39
2022-12-25T11:53:11.838Z,1013.41
2022-12-25T11:54:11.825Z,1013.39
2022-12-25T11:55:11.821Z,1013.36
2022-12-25T11:56:11.813Z,1013.28
2022-12-25T11:57:11.812Z,1013.20
2022-12-25T11:58:11.810Z,1013.11
2022-12-25T11:59:17.758Z,1013.04
2022-12-25T12:00:11.809Z,1012.93
2022-12-25T12:01:11.812Z,1012.91
2022-12-25T12:02:11.879Z,1012.86
2022-12-25T12:03:12.013Z,1012.81
2022-12-25T12:04:11.870Z,1012.75
2022-12-25T12:05:11.787Z,1012.78
2022-12-25T12:06:11.790Z,1012.78